Pagrindinis puslapis
METAR-TAF:

METAR-TAF

Oro uostai :

Čanakalė, Turkija

platuma: 40-08N, ilguma: 026-24E, Aukštis: 3 m

Dabartinis oras

Ataskaita buvo paskelbta 51 minutes, ne 19:50 UTC
Vėjas 4 kt iš Rytų/Šiaurės Rytų
Temperatūra 8°C
Drėgmė 87%
Slėgis 1024 hPa
Matomumas 10 km arba daugiau
nėra debesų žemiau 1500 m ir nėra kamuolinių lietaus debesų

METAR: LTBH 151950Z 07004KT CAVOK 08/06 Q1024

Laikas: 23:41 (20:41 UTC)

Prognozė

Ataskaita buvo paskelbta 1 valandą ir 1 minutes, ne 19:40 UTC
Prognozė galioja nuo 15 metu 21 UTC su 16 metu 06 UTC
Vėjas 2 kt nuo kintamojo kryptimis
Matomumas 10 km arba daugiau
nėra debesų žemiau 1500 m ir nėra kamuolinių lietaus debesų
Tapsmas
nuo 16 metu 00 UTC su 16 metu 02 UTC
Matomumas: 3000 m
rūkana
Tapsmas
nuo 16 metu 02 UTC su 16 metu 04 UTC
Matomumas: 0100 m
Su prošvaistėmis ne aukštis 800 ft
rūkas

TAF: LTBH 151940Z 1521/1606 VRB02KT CAVOK BECMG 1600/1602 3000 BR BECMG 1602/1604 0100 FG BKN008

Orai ataskaitas ir orų prognozės (METAR, TAF).

turimą stotys yra geltonos ir raudonos taškus žemėlapyje.

Perkelti pele per norėdami pamatyti stoties vardą.

Tada spustelėkite, norėdami matyti oro stebėjimo ir prognozės.

Norėdami pakeisti žemėlapį: spustelėkite ant žalios mygtukų su juodo kryžiaus žemyn,; žalią mygtuką su brūkšneliu, jei norite nutolinti; arba žalių rodyklių gretimoms žemėlapius.


METAR-TAF: